sensor_id;sensor_type;location;lat;lon;timestamp;temperature;humidity
51733;DHT22;39139;53.144;6.244;2023-08-31T00:00:42;11.20;99.90
51733;DHT22;39139;53.144;6.244;2023-08-31T00:03:08;11.40;99.90
51733;DHT22;39139;53.144;6.244;2023-08-31T00:05:40;11.20;99.90
51733;DHT22;39139;53.144;6.244;2023-08-31T00:08:06;11.40;99.90
51733;DHT22;39139;53.144;6.244;2023-08-31T00:10:33;11.10;99.90
51733;DHT22;39139;53.144;6.244;2023-08-31T00:12:58;11.10;99.90
51733;DHT22;39139;53.144;6.244;2023-08-31T00:15:24;11.30;99.90
51733;DHT22;39139;53.144;6.244;2023-08-31T00:17:50;11.50;99.90
51733;DHT22;39139;53.144;6.244;2023-08-31T00:20:16;11.10;99.90
51733;DHT22;39139;53.144;6.244;2023-08-31T00:22:41;11.20;99.90
51733;DHT22;39139;53.144;6.244;2023-08-31T00:25:07;11.10;99.90
51733;DHT22;39139;53.144;6.244;2023-08-31T00:27:34;11.30;99.90
51733;DHT22;39139;53.144;6.244;2023-08-31T00:30:00;11.40;99.90
51733;DHT22;39139;53.144;6.244;2023-08-31T00:32:27;11.10;99.90
51733;DHT22;39139;53.144;6.244;2023-08-31T00:34:52;11.50;99.90
51733;DHT22;39139;53.144;6.244;2023-08-31T00:37:18;11.20;99.90
51733;DHT22;39139;53.144;6.244;2023-08-31T00:39:46;11.30;99.90
51733;DHT22;39139;53.144;6.244;2023-08-31T00:42:13;11.40;99.90
51733;DHT22;39139;53.144;6.244;2023-08-31T00:44:39;11.20;99.90
51733;DHT22;39139;53.144;6.244;2023-08-31T00:47:05;11.10;99.90
51733;DHT22;39139;53.144;6.244;2023-08-31T00:49:31;11.10;99.90
51733;DHT22;39139;53.144;6.244;2023-08-31T00:51:57;11.20;99.90
51733;DHT22;39139;53.144;6.244;2023-08-31T00:54:23;11.20;99.90
51733;DHT22;39139;53.144;6.244;2023-08-31T00:56:53;11.10;99.90
51733;DHT22;39139;53.144;6.244;2023-08-31T00:59:19;11.00;99.90
51733;DHT22;39139;53.144;6.244;2023-08-31T01:02:15;10.90;99.90
51733;DHT22;39139;53.144;6.244;2023-08-31T01:07:44;10.90;99.90
51733;DHT22;39139;53.144;6.244;2023-08-31T01:13:21;10.80;99.90
51733;DHT22;39139;53.144;6.244;2023-08-31T01:15:52;11.30;99.90
51733;DHT22;39139;53.144;6.244;2023-08-31T01:18:19;11.00;99.90
51733;DHT22;39139;53.144;6.244;2023-08-31T01:21:01;10.70;99.90
51733;DHT22;39139;53.144;6.244;2023-08-31T01:23:53;11.00;99.90
51733;DHT22;39139;53.144;6.244;2023-08-31T01:26:19;10.60;99.90
51733;DHT22;39139;53.144;6.244;2023-08-31T01:28:46;11.10;99.90
51733;DHT22;39139;53.144;6.244;2023-08-31T01:31:12;10.60;99.90
51733;DHT22;39139;53.144;6.244;2023-08-31T01:33:37;10.80;99.90
51733;DHT22;39139;53.144;6.244;2023-08-31T01:36:08;10.50;99.90
51733;DHT22;39139;53.144;6.244;2023-08-31T01:38:38;10.50;99.90
51733;DHT22;39139;53.144;6.244;2023-08-31T01:41:07;10.50;99.90
51733;DHT22;39139;53.144;6.244;2023-08-31T01:43:36;11.00;99.90
51733;DHT22;39139;53.144;6.244;2023-08-31T01:46:02;10.70;99.90
51733;DHT22;39139;53.144;6.244;2023-08-31T01:48:29;10.30;99.90
51733;DHT22;39139;53.144;6.244;2023-08-31T01:50:55;10.40;99.90
51733;DHT22;39139;53.144;6.244;2023-08-31T01:53:20;10.30;99.90
51733;DHT22;39139;53.144;6.244;2023-08-31T01:55:46;10.30;99.90
51733;DHT22;39139;53.144;6.244;2023-08-31T01:58:11;10.50;99.90
51733;DHT22;39139;53.144;6.244;2023-08-31T02:00:37;10.60;99.90
51733;DHT22;39139;53.144;6.244;2023-08-31T02:03:04;10.30;99.90
51733;DHT22;39139;53.144;6.244;2023-08-31T02:05:29;10.20;99.90
51733;DHT22;39139;53.144;6.244;2023-08-31T02:07:55;10.20;99.90
51733;DHT22;39139;53.144;6.244;2023-08-31T02:10:21;10.40;99.90
51733;DHT22;39139;53.144;6.244;2023-08-31T02:12:46;10.20;99.90
51733;DHT22;39139;53.144;6.244;2023-08-31T02:15:12;10.00;99.90
51733;DHT22;39139;53.144;6.244;2023-08-31T02:17:38;10.30;99.90
51733;DHT22;39139;53.144;6.244;2023-08-31T02:20:04;9.70;99.90
51733;DHT22;39139;53.144;6.244;2023-08-31T02:22:34;10.20;99.90
51733;DHT22;39139;53.144;6.244;2023-08-31T02:24:59;10.10;99.90
51733;DHT22;39139;53.144;6.244;2023-08-31T02:27:27;10.20;99.90
51733;DHT22;39139;53.144;6.244;2023-08-31T02:29:53;10.00;99.90
51733;DHT22;39139;53.144;6.244;2023-08-31T02:32:19;10.10;99.90
51733;DHT22;39139;53.144;6.244;2023-08-31T02:34:45;10.20;99.90
51733;DHT22;39139;53.144;6.244;2023-08-31T02:37:10;10.50;99.90
51733;DHT22;39139;53.144;6.244;2023-08-31T02:39:36;10.30;99.90
51733;DHT22;39139;53.144;6.244;2023-08-31T02:42:02;10.00;99.90
51733;DHT22;39139;53.144;6.244;2023-08-31T02:44:27;9.90;99.90
51733;DHT22;39139;53.144;6.244;2023-08-31T02:46:53;10.50;99.90
51733;DHT22;39139;53.144;6.244;2023-08-31T02:49:19;10.00;99.90
51733;DHT22;39139;53.144;6.244;2023-08-31T02:51:44;9.90;99.90
51733;DHT22;39139;53.144;6.244;2023-08-31T02:54:10;10.10;99.90
51733;DHT22;39139;53.144;6.244;2023-08-31T02:56:36;10.10;99.90
51733;DHT22;39139;53.144;6.244;2023-08-31T02:59:01;10.30;99.90
51733;DHT22;39139;53.144;6.244;2023-08-31T03:01:27;9.80;99.90
51733;DHT22;39139;53.144;6.244;2023-08-31T03:03:53;10.00;99.90
51733;DHT22;39139;53.144;6.244;2023-08-31T03:06:18;10.10;99.90
51733;DHT22;39139;53.144;6.244;2023-08-31T03:08:44;10.40;99.90
51733;DHT22;39139;53.144;6.244;2023-08-31T03:11:09;10.00;99.90
51733;DHT22;39139;53.144;6.244;2023-08-31T03:13:35;10.70;99.90
51733;DHT22;39139;53.144;6.244;2023-08-31T03:16:01;10.00;99.90
51733;DHT22;39139;53.144;6.244;2023-08-31T03:18:27;10.00;99.90
51733;DHT22;39139;53.144;6.244;2023-08-31T03:20:54;10.50;99.90
51733;DHT22;39139;53.144;6.244;2023-08-31T03:23:20;10.00;99.90
51733;DHT22;39139;53.144;6.244;2023-08-31T03:25:46;10.00;99.90
51733;DHT22;39139;53.144;6.244;2023-08-31T03:28:12;9.90;99.90
51733;DHT22;39139;53.144;6.244;2023-08-31T03:30:37;10.20;99.90
51733;DHT22;39139;53.144;6.244;2023-08-31T03:33:03;10.20;99.90
51733;DHT22;39139;53.144;6.244;2023-08-31T03:35:31;10.20;99.90
51733;DHT22;39139;53.144;6.244;2023-08-31T03:37:56;10.10;99.90
51733;DHT22;39139;53.144;6.244;2023-08-31T03:40:22;10.10;99.90
51733;DHT22;39139;53.144;6.244;2023-08-31T03:42:50;10.20;99.90
51733;DHT22;39139;53.144;6.244;2023-08-31T03:45:18;10.20;99.90
51733;DHT22;39139;53.144;6.244;2023-08-31T03:47:43;10.10;99.90
51733;DHT22;39139;53.144;6.244;2023-08-31T03:50:10;10.30;99.90
51733;DHT22;39139;53.144;6.244;2023-08-31T03:52:35;10.10;99.90
51733;DHT22;39139;53.144;6.244;2023-08-31T03:55:01;10.50;99.90
51733;DHT22;39139;53.144;6.244;2023-08-31T03:57:26;10.10;99.90
51733;DHT22;39139;53.144;6.244;2023-08-31T03:59:52;10.20;99.90
51733;DHT22;39139;53.144;6.244;2023-08-31T04:02:18;10.10;99.90
51733;DHT22;39139;53.144;6.244;2023-08-31T04:04:43;10.10;99.90
51733;DHT22;39139;53.144;6.244;2023-08-31T04:07:09;10.10;99.90
51733;DHT22;39139;53.144;6.244;2023-08-31T04:09:34;10.10;99.90
51733;DHT22;39139;53.144;6.244;2023-08-31T04:12:00;10.10;99.90
51733;DHT22;39139;53.144;6.244;2023-08-31T04:14:26;10.10;99.90
51733;DHT22;39139;53.144;6.244;2023-08-31T04:16:54;9.90;99.90
51733;DHT22;39139;53.144;6.244;2023-08-31T04:19:19;10.30;99.90
51733;DHT22;39139;53.144;6.244;2023-08-31T04:21:45;10.20;99.90
51733;DHT22;39139;53.144;6.244;2023-08-31T04:24:10;10.30;99.90
51733;DHT22;39139;53.144;6.244;2023-08-31T04:26:36;10.00;99.90
51733;DHT22;39139;53.144;6.244;2023-08-31T04:29:03;10.00;99.90
51733;DHT22;39139;53.144;6.244;2023-08-31T04:31:29;10.00;99.90
51733;DHT22;39139;53.144;6.244;2023-08-31T04:33:55;10.40;99.90
51733;DHT22;39139;53.144;6.244;2023-08-31T04:36:21;10.10;99.90
51733;DHT22;39139;53.144;6.244;2023-08-31T04:38:48;10.10;99.90
51733;DHT22;39139;53.144;6.244;2023-08-31T04:41:14;10.50;99.90
51733;DHT22;39139;53.144;6.244;2023-08-31T04:43:40;10.40;99.90
51733;DHT22;39139;53.144;6.244;2023-08-31T04:46:06;10.10;99.90
51733;DHT22;39139;53.144;6.244;2023-08-31T04:48:32;10.40;99.90
51733;DHT22;39139;53.144;6.244;2023-08-31T04:50:58;10.40;99.90
51733;DHT22;39139;53.144;6.244;2023-08-31T04:53:24;10.30;99.90
51733;DHT22;39139;53.144;6.244;2023-08-31T04:55:50;10.40;99.90
51733;DHT22;39139;53.144;6.244;2023-08-31T04:58:16;11.00;99.90
51733;DHT22;39139;53.144;6.244;2023-08-31T05:00:41;10.30;99.90
51733;DHT22;39139;53.144;6.244;2023-08-31T05:03:09;10.30;99.90
51733;DHT22;39139;53.144;6.244;2023-08-31T05:05:34;10.40;99.90
51733;DHT22;39139;53.144;6.244;2023-08-31T05:08:00;10.40;99.90
51733;DHT22;39139;53.144;6.244;2023-08-31T05:10:26;10.30;99.90
51733;DHT22;39139;53.144;6.244;2023-08-31T05:12:51;10.50;99.90
51733;DHT22;39139;53.144;6.244;2023-08-31T05:15:17;11.00;99.90
51733;DHT22;39139;53.144;6.244;2023-08-31T05:17:43;10.40;99.90
51733;DHT22;39139;53.144;6.244;2023-08-31T05:20:08;10.40;99.90
51733;DHT22;39139;53.144;6.244;2023-08-31T05:22:35;10.40;99.90
51733;DHT22;39139;53.144;6.244;2023-08-31T05:25:02;10.70;99.90
51733;DHT22;39139;53.144;6.244;2023-08-31T05:27:27;10.50;99.90
51733;DHT22;39139;53.144;6.244;2023-08-31T05:29:53;10.60;99.90
51733;DHT22;39139;53.144;6.244;2023-08-31T05:32:18;10.80;99.90
51733;DHT22;39139;53.144;6.244;2023-08-31T05:34:44;10.70;99.90
51733;DHT22;39139;53.144;6.244;2023-08-31T05:37:10;11.00;99.90
51733;DHT22;39139;53.144;6.244;2023-08-31T05:39:35;11.10;99.90
51733;DHT22;39139;53.144;6.244;2023-08-31T05:42:01;10.80;99.90
51733;DHT22;39139;53.144;6.244;2023-08-31T05:44:27;11.00;99.90
51733;DHT22;39139;53.144;6.244;2023-08-31T05:46:52;10.90;99.90
51733;DHT22;39139;53.144;6.244;2023-08-31T05:49:18;11.00;99.90
51733;DHT22;39139;53.144;6.244;2023-08-31T05:51:44;11.00;99.90
51733;DHT22;39139;53.144;6.244;2023-08-31T05:54:09;11.10;99.90
51733;DHT22;39139;53.144;6.244;2023-08-31T05:56:39;11.20;99.90
51733;DHT22;39139;53.144;6.244;2023-08-31T05:59:05;11.40;99.90
51733;DHT22;39139;53.144;6.244;2023-08-31T06:01:31;11.60;99.90
51733;DHT22;39139;53.144;6.244;2023-08-31T06:03:57;11.10;99.90
51733;DHT22;39139;53.144;6.244;2023-08-31T06:06:23;11.30;99.90
51733;DHT22;39139;53.144;6.244;2023-08-31T06:08:49;11.30;99.90
51733;DHT22;39139;53.144;6.244;2023-08-31T06:11:15;11.40;99.90
51733;DHT22;39139;53.144;6.244;2023-08-31T06:13:40;11.40;99.90
51733;DHT22;39139;53.144;6.244;2023-08-31T06:16:06;11.50;99.90
51733;DHT22;39139;53.144;6.244;2023-08-31T06:18:32;11.60;99.90
51733;DHT22;39139;53.144;6.244;2023-08-31T06:20:58;12.10;99.90
51733;DHT22;39139;53.144;6.244;2023-08-31T06:23:23;12.20;99.90
51733;DHT22;39139;53.144;6.244;2023-08-31T06:25:49;12.30;99.90
51733;DHT22;39139;53.144;6.244;2023-08-31T06:28:15;12.60;99.90
51733;DHT22;39139;53.144;6.244;2023-08-31T06:30:42;12.70;99.90
51733;DHT22;39139;53.144;6.244;2023-08-31T06:33:15;13.10;99.90
51733;DHT22;39139;53.144;6.244;2023-08-31T06:35:45;13.00;99.90
51733;DHT22;39139;53.144;6.244;2023-08-31T06:38:10;13.30;99.90
51733;DHT22;39139;53.144;6.244;2023-08-31T06:40:36;13.10;99.90
51733;DHT22;39139;53.144;6.244;2023-08-31T06:43:02;13.30;99.90
51733;DHT22;39139;53.144;6.244;2023-08-31T06:45:29;13.00;99.90
51733;DHT22;39139;53.144;6.244;2023-08-31T06:47:54;13.10;99.90
51733;DHT22;39139;53.144;6.244;2023-08-31T06:50:20;13.50;99.90
51733;DHT22;39139;53.144;6.244;2023-08-31T06:52:45;13.30;99.90
51733;DHT22;39139;53.144;6.244;2023-08-31T06:55:12;13.30;99.90
51733;DHT22;39139;53.144;6.244;2023-08-31T06:57:37;13.80;99.90
51733;DHT22;39139;53.144;6.244;2023-08-31T07:00:04;13.50;99.90
51733;DHT22;39139;53.144;6.244;2023-08-31T07:02:31;13.80;99.90
51733;DHT22;39139;53.144;6.244;2023-08-31T07:04:57;13.40;99.90
51733;DHT22;39139;53.144;6.244;2023-08-31T07:07:22;13.80;99.90
51733;DHT22;39139;53.144;6.244;2023-08-31T07:09:48;13.70;99.90
51733;DHT22;39139;53.144;6.244;2023-08-31T07:12:14;13.70;99.90
51733;DHT22;39139;53.144;6.244;2023-08-31T07:14:40;13.80;99.90
51733;DHT22;39139;53.144;6.244;2023-08-31T07:17:06;14.00;99.90
51733;DHT22;39139;53.144;6.244;2023-08-31T07:19:31;13.80;99.90
51733;DHT22;39139;53.144;6.244;2023-08-31T07:22:00;13.90;99.90
51733;DHT22;39139;53.144;6.244;2023-08-31T07:24:26;13.90;99.90
51733;DHT22;39139;53.144;6.244;2023-08-31T07:26:51;14.00;99.90
51733;DHT22;39139;53.144;6.244;2023-08-31T07:29:17;13.90;99.90
51733;DHT22;39139;53.144;6.244;2023-08-31T07:31:43;13.80;99.90
51733;DHT22;39139;53.144;6.244;2023-08-31T07:34:08;14.20;99.90
51733;DHT22;39139;53.144;6.244;2023-08-31T07:36:34;14.30;99.90
51733;DHT22;39139;53.144;6.244;2023-08-31T07:39:00;14.60;99.90
51733;DHT22;39139;53.144;6.244;2023-08-31T07:41:25;14.30;99.90
51733;DHT22;39139;53.144;6.244;2023-08-31T07:43:51;14.30;99.90
51733;DHT22;39139;53.144;6.244;2023-08-31T07:46:18;14.60;99.90
51733;DHT22;39139;53.144;6.244;2023-08-31T07:48:44;14.50;99.90
51733;DHT22;39139;53.144;6.244;2023-08-31T07:51:10;14.70;99.90
51733;DHT22;39139;53.144;6.244;2023-08-31T07:53:35;14.70;99.90
51733;DHT22;39139;53.144;6.244;2023-08-31T07:56:01;15.00;99.90
51733;DHT22;39139;53.144;6.244;2023-08-31T07:58:26;14.90;99.90
51733;DHT22;39139;53.144;6.244;2023-08-31T08:00:53;15.00;99.90
51733;DHT22;39139;53.144;6.244;2023-08-31T08:03:20;15.00;99.90
51733;DHT22;39139;53.144;6.244;2023-08-31T08:05:46;15.10;99.90
51733;DHT22;39139;53.144;6.244;2023-08-31T08:08:11;15.10;99.90
51733;DHT22;39139;53.144;6.244;2023-08-31T08:10:37;15.20;99.90
51733;DHT22;39139;53.144;6.244;2023-08-31T08:13:03;15.30;99.90
51733;DHT22;39139;53.144;6.244;2023-08-31T08:15:29;15.50;99.90
51733;DHT22;39139;53.144;6.244;2023-08-31T08:17:55;15.60;99.90
51733;DHT22;39139;53.144;6.244;2023-08-31T08:20:23;15.60;99.90
51733;DHT22;39139;53.144;6.244;2023-08-31T08:22:48;15.60;99.90
51733;DHT22;39139;53.144;6.244;2023-08-31T08:25:18;15.80;99.90
51733;DHT22;39139;53.144;6.244;2023-08-31T08:27:44;16.00;99.90
51733;DHT22;39139;53.144;6.244;2023-08-31T08:30:10;16.30;99.90
51733;DHT22;39139;53.144;6.244;2023-08-31T08:32:36;16.70;99.90
51733;DHT22;39139;53.144;6.244;2023-08-31T08:35:01;17.10;99.90
51733;DHT22;39139;53.144;6.244;2023-08-31T08:37:28;17.40;99.90
51733;DHT22;39139;53.144;6.244;2023-08-31T08:39:54;17.30;99.90
51733;DHT22;39139;53.144;6.244;2023-08-31T08:42:24;17.10;99.90
51733;DHT22;39139;53.144;6.244;2023-08-31T08:44:50;16.50;99.90
51733;DHT22;39139;53.144;6.244;2023-08-31T08:47:17;16.10;99.90
51733;DHT22;39139;53.144;6.244;2023-08-31T08:49:43;15.60;99.90
51733;DHT22;39139;53.144;6.244;2023-08-31T08:52:09;15.40;99.90
51733;DHT22;39139;53.144;6.244;2023-08-31T08:54:35;14.80;99.90
51733;DHT22;39139;53.144;6.244;2023-08-31T08:57:01;14.60;99.90
51733;DHT22;39139;53.144;6.244;2023-08-31T08:59:27;14.60;99.90
51733;DHT22;39139;53.144;6.244;2023-08-31T09:01:53;15.20;99.90
51733;DHT22;39139;53.144;6.244;2023-08-31T09:04:19;15.40;99.90
51733;DHT22;39139;53.144;6.244;2023-08-31T09:06:45;15.90;99.90
51733;DHT22;39139;53.144;6.244;2023-08-31T09:09:11;16.50;99.90
51733;DHT22;39139;53.144;6.244;2023-08-31T09:11:37;16.90;99.90
51733;DHT22;39139;53.144;6.244;2023-08-31T09:14:16;17.30;99.90
51733;DHT22;39139;53.144;6.244;2023-08-31T09:16:50;17.80;99.90
51733;DHT22;39139;53.144;6.244;2023-08-31T09:19:20;18.20;99.90
51733;DHT22;39139;53.144;6.244;2023-08-31T09:21:51;18.50;99.90
51733;DHT22;39139;53.144;6.244;2023-08-31T09:24:17;18.70;99.90
51733;DHT22;39139;53.144;6.244;2023-08-31T09:26:48;18.90;99.90
51733;DHT22;39139;53.144;6.244;2023-08-31T09:29:14;19.20;99.90
51733;DHT22;39139;53.144;6.244;2023-08-31T09:31:46;19.50;99.90
51733;DHT22;39139;53.144;6.244;2023-08-31T09:34:16;19.10;99.90
51733;DHT22;39139;53.144;6.244;2023-08-31T09:36:43;18.60;99.90
51733;DHT22;39139;53.144;6.244;2023-08-31T09:39:09;17.90;99.90
51733;DHT22;39139;53.144;6.244;2023-08-31T09:41:35;17.30;99.90
51733;DHT22;39139;53.144;6.244;2023-08-31T09:44:19;16.90;99.90
51733;DHT22;39139;53.144;6.244;2023-08-31T09:46:46;16.50;99.90
51733;DHT22;39139;53.144;6.244;2023-08-31T09:49:14;16.40;99.90
51733;DHT22;39139;53.144;6.244;2023-08-31T09:51:44;16.60;99.90
51733;DHT22;39139;53.144;6.244;2023-08-31T09:54:14;17.10;99.90
51733;DHT22;39139;53.144;6.244;2023-08-31T09:56:45;17.50;99.90
51733;DHT22;39139;53.144;6.244;2023-08-31T09:59:13;17.80;99.90
51733;DHT22;39139;53.144;6.244;2023-08-31T10:01:40;18.00;99.90
51733;DHT22;39139;53.144;6.244;2023-08-31T10:04:06;18.00;99.90
51733;DHT22;39139;53.144;6.244;2023-08-31T10:06:35;18.20;99.90
51733;DHT22;39139;53.144;6.244;2023-08-31T10:09:01;18.30;99.90
51733;DHT22;39139;53.144;6.244;2023-08-31T10:11:29;18.50;99.90
51733;DHT22;39139;53.144;6.244;2023-08-31T10:13:55;18.60;99.90
51733;DHT22;39139;53.144;6.244;2023-08-31T10:16:21;18.70;99.90
51733;DHT22;39139;53.144;6.244;2023-08-31T10:18:48;18.80;99.90
51733;DHT22;39139;53.144;6.244;2023-08-31T10:21:18;18.90;99.90
51733;DHT22;39139;53.144;6.244;2023-08-31T10:23:48;19.10;99.90
51733;DHT22;39139;53.144;6.244;2023-08-31T10:26:34;19.10;99.90
51733;DHT22;39139;53.144;6.244;2023-08-31T10:29:00;18.90;99.90
51733;DHT22;39139;53.144;6.244;2023-08-31T10:31:33;18.60;99.90
51733;DHT22;39139;53.144;6.244;2023-08-31T10:34:05;18.30;99.90
51733;DHT22;39139;53.144;6.244;2023-08-31T10:41:37;17.60;99.90
51733;DHT22;39139;53.144;6.244;2023-08-31T10:44:20;17.80;99.90
51733;DHT22;39139;53.144;6.244;2023-08-31T10:46:46;18.00;99.90
51733;DHT22;39139;53.144;6.244;2023-08-31T10:51:45;18.30;99.90
51733;DHT22;39139;53.144;6.244;2023-08-31T10:56:55;18.70;99.90
51733;DHT22;39139;53.144;6.244;2023-08-31T10:59:27;19.00;99.90
51733;DHT22;39139;53.144;6.244;2023-08-31T11:02:06;19.10;99.90
51733;DHT22;39139;53.144;6.244;2023-08-31T11:07:29;19.10;99.90
51733;DHT22;39139;53.144;6.244;2023-08-31T11:10:29;18.90;99.90
51733;DHT22;39139;53.144;6.244;2023-08-31T11:12:55;18.60;99.90
51733;DHT22;39139;53.144;6.244;2023-08-31T11:15:24;18.50;99.90
51733;DHT22;39139;53.144;6.244;2023-08-31T11:17:52;18.60;99.90
51733;DHT22;39139;53.144;6.244;2023-08-31T11:20:19;18.60;99.90
51733;DHT22;39139;53.144;6.244;2023-08-31T11:22:47;18.80;99.90
51733;DHT22;39139;53.144;6.244;2023-08-31T11:25:16;18.90;99.90
51733;DHT22;39139;53.144;6.244;2023-08-31T11:27:42;18.90;99.90
51733;DHT22;39139;53.144;6.244;2023-08-31T11:30:17;18.90;99.90
51733;DHT22;39139;53.144;6.244;2023-08-31T11:32:47;19.00;99.90
51733;DHT22;39139;53.144;6.244;2023-08-31T11:35:14;19.10;99.90
51733;DHT22;39139;53.144;6.244;2023-08-31T11:37:45;18.80;99.90
51733;DHT22;39139;53.144;6.244;2023-08-31T11:40:12;19.40;99.90
51733;DHT22;39139;53.144;6.244;2023-08-31T11:42:40;19.20;99.90
51733;DHT22;39139;53.144;6.244;2023-08-31T11:45:06;18.80;99.90
51733;DHT22;39139;53.144;6.244;2023-08-31T11:47:32;18.30;99.90
51733;DHT22;39139;53.144;6.244;2023-08-31T11:49:59;17.80;99.90
51733;DHT22;39139;53.144;6.244;2023-08-31T11:52:27;17.50;99.90
51733;DHT22;39139;53.144;6.244;2023-08-31T11:54:53;17.20;99.90
51733;DHT22;39139;53.144;6.244;2023-08-31T11:57:19;17.00;99.90
51733;DHT22;39139;53.144;6.244;2023-08-31T11:59:50;16.90;99.90
51733;DHT22;39139;53.144;6.244;2023-08-31T12:02:16;16.70;99.90
51733;DHT22;39139;53.144;6.244;2023-08-31T12:04:45;16.60;99.90
51733;DHT22;39139;53.144;6.244;2023-08-31T12:07:11;16.60;99.90
51733;DHT22;39139;53.144;6.244;2023-08-31T12:09:37;16.70;99.90
51733;DHT22;39139;53.144;6.244;2023-08-31T12:12:03;16.80;99.90
51733;DHT22;39139;53.144;6.244;2023-08-31T12:14:30;17.00;99.90
51733;DHT22;39139;53.144;6.244;2023-08-31T12:17:03;17.10;99.90
51733;DHT22;39139;53.144;6.244;2023-08-31T12:19:32;17.10;99.90
51733;DHT22;39139;53.144;6.244;2023-08-31T12:21:58;17.00;99.90
51733;DHT22;39139;53.144;6.244;2023-08-31T12:24:25;17.00;99.90
51733;DHT22;39139;53.144;6.244;2023-08-31T12:26:51;17.00;99.90
51733;DHT22;39139;53.144;6.244;2023-08-31T12:29:19;17.20;99.90
51733;DHT22;39139;53.144;6.244;2023-08-31T12:31:45;17.40;99.90
51733;DHT22;39139;53.144;6.244;2023-08-31T12:34:11;17.70;99.90
51733;DHT22;39139;53.144;6.244;2023-08-31T12:36:37;18.00;99.90
51733;DHT22;39139;53.144;6.244;2023-08-31T12:39:04;18.20;99.90
51733;DHT22;39139;53.144;6.244;2023-08-31T12:41:33;18.20;99.90
51733;DHT22;39139;53.144;6.244;2023-08-31T12:43:59;18.20;99.90
51733;DHT22;39139;53.144;6.244;2023-08-31T12:46:25;18.00;99.90
51733;DHT22;39139;53.144;6.244;2023-08-31T12:48:51;17.80;99.90
51733;DHT22;39139;53.144;6.244;2023-08-31T12:51:18;17.60;99.90
51733;DHT22;39139;53.144;6.244;2023-08-31T12:53:43;17.50;99.90
51733;DHT22;39139;53.144;6.244;2023-08-31T12:56:09;17.40;99.90
51733;DHT22;39139;53.144;6.244;2023-08-31T12:58:35;17.30;99.90
51733;DHT22;39139;53.144;6.244;2023-08-31T13:01:00;17.30;99.90
51733;DHT22;39139;53.144;6.244;2023-08-31T13:03:27;17.20;99.90
51733;DHT22;39139;53.144;6.244;2023-08-31T13:05:53;17.10;99.90
51733;DHT22;39139;53.144;6.244;2023-08-31T13:08:19;17.10;99.90
51733;DHT22;39139;53.144;6.244;2023-08-31T13:10:53;17.20;99.90
51733;DHT22;39139;53.144;6.244;2023-08-31T13:13:19;17.30;99.90
51733;DHT22;39139;53.144;6.244;2023-08-31T13:15:49;17.50;99.90
51733;DHT22;39139;53.144;6.244;2023-08-31T13:18:15;17.80;99.90
51733;DHT22;39139;53.144;6.244;2023-08-31T13:20:41;18.00;99.90
51733;DHT22;39139;53.144;6.244;2023-08-31T13:23:07;18.30;99.90
51733;DHT22;39139;53.144;6.244;2023-08-31T13:25:33;18.60;99.90
51733;DHT22;39139;53.144;6.244;2023-08-31T13:27:58;18.80;99.90
51733;DHT22;39139;53.144;6.244;2023-08-31T13:30:24;18.90;99.90
51733;DHT22;39139;53.144;6.244;2023-08-31T13:32:50;19.10;99.90
51733;DHT22;39139;53.144;6.244;2023-08-31T13:35:16;19.20;99.90
51733;DHT22;39139;53.144;6.244;2023-08-31T13:37:41;19.30;99.90
51733;DHT22;39139;53.144;6.244;2023-08-31T13:40:07;19.30;99.90
51733;DHT22;39139;53.144;6.244;2023-08-31T13:42:35;19.40;99.90
51733;DHT22;39139;53.144;6.244;2023-08-31T13:45:08;19.10;99.90
51733;DHT22;39139;53.144;6.244;2023-08-31T13:47:34;19.00;99.90
51733;DHT22;39139;53.144;6.244;2023-08-31T13:50:00;18.90;99.90
51733;DHT22;39139;53.144;6.244;2023-08-31T13:52:26;19.10;99.90
51733;DHT22;39139;53.144;6.244;2023-08-31T13:54:52;19.00;99.90
51733;DHT22;39139;53.144;6.244;2023-08-31T13:57:18;18.70;99.90
51733;DHT22;39139;53.144;6.244;2023-08-31T13:59:44;18.50;99.90
51733;DHT22;39139;53.144;6.244;2023-08-31T14:02:10;18.20;99.90
51733;DHT22;39139;53.144;6.244;2023-08-31T14:04:35;18.00;99.90
51733;DHT22;39139;53.144;6.244;2023-08-31T14:07:01;17.90;99.90
51733;DHT22;39139;53.144;6.244;2023-08-31T14:09:30;18.00;99.90
51733;DHT22;39139;53.144;6.244;2023-08-31T14:11:57;18.00;99.90
51733;DHT22;39139;53.144;6.244;2023-08-31T14:14:22;18.00;99.90
51733;DHT22;39139;53.144;6.244;2023-08-31T14:16:49;17.90;99.90
51733;DHT22;39139;53.144;6.244;2023-08-31T14:19:15;17.80;99.90
51733;DHT22;39139;53.144;6.244;2023-08-31T14:21:40;17.60;99.90
51733;DHT22;39139;53.144;6.244;2023-08-31T14:24:07;17.60;99.90
51733;DHT22;39139;53.144;6.244;2023-08-31T14:26:32;17.60;99.90
51733;DHT22;39139;53.144;6.244;2023-08-31T14:28:58;17.60;99.90
51733;DHT22;39139;53.144;6.244;2023-08-31T14:31:24;17.80;99.90
51733;DHT22;39139;53.144;6.244;2023-08-31T14:33:49;17.90;99.90
51733;DHT22;39139;53.144;6.244;2023-08-31T14:36:17;17.90;99.90
51733;DHT22;39139;53.144;6.244;2023-08-31T14:38:43;18.00;99.90
51733;DHT22;39139;53.144;6.244;2023-08-31T14:41:11;18.00;99.90
51733;DHT22;39139;53.144;6.244;2023-08-31T14:43:36;18.10;99.90
51733;DHT22;39139;53.144;6.244;2023-08-31T14:46:02;18.00;99.90
51733;DHT22;39139;53.144;6.244;2023-08-31T14:48:29;18.00;99.90
51733;DHT22;39139;53.144;6.244;2023-08-31T14:50:55;18.00;99.90
51733;DHT22;39139;53.144;6.244;2023-08-31T14:53:24;18.00;99.90
51733;DHT22;39139;53.144;6.244;2023-08-31T14:55:50;18.00;99.90
51733;DHT22;39139;53.144;6.244;2023-08-31T14:58:16;18.00;99.90
51733;DHT22;39139;53.144;6.244;2023-08-31T15:00:41;18.00;99.90
51733;DHT22;39139;53.144;6.244;2023-08-31T15:03:07;18.00;99.90
51733;DHT22;39139;53.144;6.244;2023-08-31T15:05:34;18.00;99.90
51733;DHT22;39139;53.144;6.244;2023-08-31T15:08:00;17.90;99.90
51733;DHT22;39139;53.144;6.244;2023-08-31T15:10:27;17.80;99.90
51733;DHT22;39139;53.144;6.244;2023-08-31T15:12:53;17.80;99.90
51733;DHT22;39139;53.144;6.244;2023-08-31T15:15:26;17.70;99.90
51733;DHT22;39139;53.144;6.244;2023-08-31T15:17:52;17.60;99.90
51733;DHT22;39139;53.144;6.244;2023-08-31T15:20:18;17.50;99.90
51733;DHT22;39139;53.144;6.244;2023-08-31T15:22:43;17.50;99.90
51733;DHT22;39139;53.144;6.244;2023-08-31T15:25:09;17.40;99.90
51733;DHT22;39139;53.144;6.244;2023-08-31T15:27:35;17.40;99.90
51733;DHT22;39139;53.144;6.244;2023-08-31T15:30:01;17.20;99.90
51733;DHT22;39139;53.144;6.244;2023-08-31T15:32:28;17.10;99.90
51733;DHT22;39139;53.144;6.244;2023-08-31T15:34:54;17.10;99.90
51733;DHT22;39139;53.144;6.244;2023-08-31T15:37:19;17.00;99.90
51733;DHT22;39139;53.144;6.244;2023-08-31T15:39:45;17.00;99.90
51733;DHT22;39139;53.144;6.244;2023-08-31T15:42:11;17.00;99.90
51733;DHT22;39139;53.144;6.244;2023-08-31T15:44:42;17.00;99.90
51733;DHT22;39139;53.144;6.244;2023-08-31T15:47:08;17.00;99.90